Time;durP1;ratioP1;P1;durP2;ratioP2;P2;SDS_P1;SDS_P2;PMS_P1;PMS_P2;Temp;Humidity;BMP_temperature;BMP_pressure;BME280_temperature;BME280_humidity;BME280_pressure;Samples;Min_cycle;Max_cycle;Signal;HPM_P1;HPM_P2
2022/08/29 00:00:20;;;;;;;;;;;17.60;99.90;;;;;;5103433;27;19966;-78
2022/08/29 00:02:47;;;;;;;;;;;17.50;99.90;;;;;;5137585;27;19965;-78
2022/08/29 00:05:13;;;;;;;;;;;17.50;99.90;;;;;;5120227;27;19919;-78
2022/08/29 00:07:38;;;;;;;;;;;17.50;99.90;;;;;;5137258;27;20236;-78
2022/08/29 00:10:05;;;;;;;;;;;17.50;99.90;;;;;;5137379;27;20318;-78
2022/08/29 00:12:31;;;;;;;;;;;17.50;99.90;;;;;;5137432;27;19938;-78
2022/08/29 00:14:56;;;;;;;;;;;17.50;99.90;;;;;;5119978;27;20009;-78
2022/08/29 00:17:22;;;;;;;;;;;17.50;99.90;;;;;;5137130;27;19919;-78
2022/08/29 00:19:47;;;;;;;;;;;17.50;99.90;;;;;;5137400;27;19926;-78
2022/08/29 00:22:13;;;;;;;;;;;17.50;99.90;;;;;;5136839;27;19926;-78
2022/08/29 00:24:38;;;;;;;;;;;17.50;99.90;;;;;;5119847;27;20006;-78
2022/08/29 00:27:04;;;;;;;;;;;17.50;99.90;;;;;;5137127;27;19926;-78
2022/08/29 00:29:30;;;;;;;;;;;17.40;99.90;;;;;;5136970;27;20372;-78
2022/08/29 00:31:55;;;;;;;;;;;17.40;99.90;;;;;;5120016;27;19919;-78
2022/08/29 00:34:21;;;;;;;;;;;17.50;99.90;;;;;;5136954;27;20009;-78
2022/08/29 00:36:47;;;;;;;;;;;17.50;99.90;;;;;;5154379;27;19963;-78
2022/08/29 00:39:12;;;;;;;;;;;17.50;99.90;;;;;;5136885;27;20343;-78
2022/08/29 00:41:38;;;;;;;;;;;17.40;99.90;;;;;;5137081;27;19926;-78
2022/08/29 00:44:04;;;;;;;;;;;17.40;99.90;;;;;;5137113;27;19953;-78
2022/08/29 00:46:42;;;;;;;;;;;17.40;99.90;;;;;;5153261;27;19923;-78
2022/08/29 00:49:11;;;;;;;;;;;17.50;99.90;;;;;;5137097;27;20014;-78
2022/08/29 00:51:37;;;;;;;;;;;17.50;99.90;;;;;;5154204;27;20258;-78
2022/08/29 00:54:05;;;;;;;;;;;17.40;99.90;;;;;;5119888;27;19920;-78
2022/08/29 00:56:31;;;;;;;;;;;17.50;99.90;;;;;;5153990;27;19933;-78
2022/08/29 00:59:12;;;;;;;;;;;17.40;99.90;;;;;;5119850;27;19927;-78
2022/08/29 01:01:38;;;;;;;;;;;17.50;99.90;;;;;;5136596;27;20017;-78
2022/08/29 01:04:04;;;;;;;;;;;17.40;99.90;;;;;;5137043;27;20019;-78
2022/08/29 01:06:30;;;;;;;;;;;17.40;99.90;;;;;;5136372;27;20240;-78
2022/08/29 01:08:55;;;;;;;;;;;17.40;99.90;;;;;;5119717;27;20248;-78
2022/08/29 01:14:06;;;;;;;;;;;17.40;99.90;;;;;;5136958;27;19926;-78
2022/08/29 01:16:31;;;;;;;;;;;17.40;99.90;;;;;;5153794;27;19923;-78
2022/08/29 01:19:00;;;;;;;;;;;17.40;99.90;;;;;;5136734;27;19926;-78
2022/08/29 01:21:37;;;;;;;;;;;17.50;99.90;;;;;;5136444;27;20014;-78
2022/08/29 01:24:15;;;;;;;;;;;17.40;99.90;;;;;;5119700;27;19926;-78
2022/08/29 01:26:42;;;;;;;;;;;17.40;99.90;;;;;;5119326;27;20239;-78
2022/08/29 01:29:08;;;;;;;;;;;17.40;99.90;;;;;;5153951;27;19923;-78
2022/08/29 01:31:41;;;;;;;;;;;17.50;99.90;;;;;;5119273;27;19954;-78
2022/08/29 01:34:07;;;;;;;;;;;17.50;99.90;;;;;;5119656;27;19919;-78
2022/08/29 01:36:50;;;;;;;;;;;17.50;99.90;;;;;;5122234;27;19968;-78
2022/08/29 01:39:17;;;;;;;;;;;17.50;99.90;;;;;;5123362;27;19927;-78
2022/08/29 01:41:43;;;;;;;;;;;17.50;99.90;;;;;;5157619;27;20011;-78
2022/08/29 01:44:11;;;;;;;;;;;17.50;99.90;;;;;;5123152;27;19926;-78
2022/08/29 01:46:37;;;;;;;;;;;17.50;99.90;;;;;;5139875;27;19976;-78
2022/08/29 01:49:04;;;;;;;;;;;17.50;99.90;;;;;;5140330;27;19919;-78
2022/08/29 01:51:30;;;;;;;;;;;17.50;99.90;;;;;;5139683;27;20316;-78
2022/08/29 01:53:56;;;;;;;;;;;17.50;99.90;;;;;;5123133;27;19919;-78
2022/08/29 01:56:23;;;;;;;;;;;17.50;99.90;;;;;;5139949;27;19987;-78
2022/08/29 01:58:49;;;;;;;;;;;17.50;99.90;;;;;;5123047;27;19969;-78
2022/08/29 02:01:16;;;;;;;;;;;17.50;99.90;;;;;;5139973;27;19919;-78
2022/08/29 02:03:42;;;;;;;;;;;17.50;99.90;;;;;;5122689;27;19919;-78
2022/08/29 02:06:09;;;;;;;;;;;17.50;99.90;;;;;;5105954;27;19984;-78
2022/08/29 02:08:35;;;;;;;;;;;17.50;99.90;;;;;;5122712;27;19919;-78
2022/08/29 02:11:01;;;;;;;;;;;17.50;99.90;;;;;;5157147;27;19930;-78
2022/08/29 02:13:27;;;;;;;;;;;17.50;99.90;;;;;;5122427;27;19919;-78
2022/08/29 02:15:52;;;;;;;;;;;17.40;99.90;;;;;;5139730;27;20439;-78
2022/08/29 02:18:18;;;;;;;;;;;17.50;99.90;;;;;;5105609;27;19942;-78
2022/08/29 02:20:44;;;;;;;;;;;17.50;99.90;;;;;;5139426;27;20249;-78
2022/08/29 02:23:10;;;;;;;;;;;17.40;99.90;;;;;;5156606;27;20034;-79
2022/08/29 02:25:41;;;;;;;;;;;17.40;99.90;;;;;;5156642;27;19926;-79
2022/08/29 02:28:14;;;;;;;;;;;17.40;99.90;;;;;;5139224;27;19919;-78
2022/08/29 02:30:43;;;;;;;;;;;17.40;99.90;;;;;;5122176;27;19923;-78
2022/08/29 02:33:12;;;;;;;;;;;17.40;99.90;;;;;;5139468;27;20270;-78
2022/08/29 02:35:38;;;;;;;;;;;17.40;99.90;;;;;;5139178;27;19920;-78
2022/08/29 02:38:04;;;;;;;;;;;17.40;99.90;;;;;;5139534;27;19923;-78
2022/08/29 02:40:30;;;;;;;;;;;17.40;99.90;;;;;;5156358;27;19919;-78
2022/08/29 02:42:55;;;;;;;;;;;17.30;99.90;;;;;;5156444;27;19968;-78
2022/08/29 02:45:22;;;;;;;;;;;17.30;99.90;;;;;;5121739;27;19970;-78
2022/08/29 02:47:48;;;;;;;;;;;17.30;99.90;;;;;;5138287;27;19930;-78
2022/08/29 02:50:14;;;;;;;;;;;17.30;99.90;;;;;;5138733;27;19919;-78
2022/08/29 02:52:40;;;;;;;;;;;17.30;99.90;;;;;;5138894;27;20001;-78
2022/08/29 02:55:06;;;;;;;;;;;17.30;99.90;;;;;;5139091;27;20292;-78
2022/08/29 02:57:32;;;;;;;;;;;17.30;99.90;;;;;;5138715;27;20389;-78
2022/08/29 02:59:58;;;;;;;;;;;17.30;99.90;;;;;;5121749;27;19960;-78
2022/08/29 03:02:23;;;;;;;;;;;17.30;99.90;;;;;;5138872;27;20346;-78
2022/08/29 03:04:49;;;;;;;;;;;17.30;99.90;;;;;;5138519;27;19919;-78
2022/08/29 03:07:15;;;;;;;;;;;17.30;99.90;;;;;;5121386;27;20026;-78
2022/08/29 03:09:41;;;;;;;;;;;17.30;99.90;;;;;;5138520;27;19923;-78
2022/08/29 03:12:06;;;;;;;;;;;17.30;99.90;;;;;;5121504;27;20351;-78
2022/08/29 03:14:32;;;;;;;;;;;17.30;99.90;;;;;;5104344;27;19919;-78
2022/08/29 03:16:57;;;;;;;;;;;17.20;99.90;;;;;;5138868;27;20311;-78
2022/08/29 03:19:23;;;;;;;;;;;17.20;99.90;;;;;;5121474;27;20243;-78
2022/08/29 03:21:49;;;;;;;;;;;17.30;99.90;;;;;;5121063;27;19926;-78
2022/08/29 03:24:14;;;;;;;;;;;17.20;99.90;;;;;;5138445;27;19941;-78
2022/08/29 03:26:40;;;;;;;;;;;17.20;99.90;;;;;;5120785;27;19962;-78
2022/08/29 03:29:06;;;;;;;;;;;17.20;99.90;;;;;;5138365;27;19926;-78
2022/08/29 03:31:31;;;;;;;;;;;17.30;99.90;;;;;;5120970;27;19952;-79
2022/08/29 03:33:57;;;;;;;;;;;17.30;99.90;;;;;;5138516;27;20373;-78
2022/08/29 03:36:25;;;;;;;;;;;17.20;99.90;;;;;;5137835;27;19983;-78
2022/08/29 03:38:51;;;;;;;;;;;17.30;99.90;;;;;;5137658;27;20404;-78
2022/08/29 03:41:25;;;;;;;;;;;17.20;99.90;;;;;;5120375;27;20381;-78
2022/08/29 03:43:51;;;;;;;;;;;17.20;99.90;;;;;;5120661;27;19927;-78
2022/08/29 03:46:17;;;;;;;;;;;17.20;99.90;;;;;;5151281;27;19943;-78
2022/08/29 03:48:43;;;;;;;;;;;17.20;99.90;;;;;;5134345;27;19919;-78
2022/08/29 03:51:08;;;;;;;;;;;17.20;99.90;;;;;;5117383;27;20012;-78
2022/08/29 03:53:34;;;;;;;;;;;17.20;99.90;;;;;;5117012;27;19920;-78
2022/08/29 03:55:59;;;;;;;;;;;17.10;99.90;;;;;;5117219;27;20006;-78
2022/08/29 03:58:25;;;;;;;;;;;17.10;99.90;;;;;;5116469;27;19981;-78
2022/08/29 04:00:51;;;;;;;;;;;17.10;99.90;;;;;;5134081;27;19923;-78
2022/08/29 04:03:17;;;;;;;;;;;17.10;99.90;;;;;;5134428;27;19919;-78
2022/08/29 04:05:43;;;;;;;;;;;17.10;99.90;;;;;;5133962;27;20371;-78
2022/08/29 04:08:08;;;;;;;;;;;17.10;99.90;;;;;;5134016;27;19965;-78
2022/08/29 04:10:38;;;;;;;;;;;17.10;99.90;;;;;;5133896;27;20355;-79
2022/08/29 04:13:05;;;;;;;;;;;17.10;99.90;;;;;;5116950;27;19920;-78
2022/08/29 04:15:32;;;;;;;;;;;17.10;99.90;;;;;;5116962;27;19919;-78
2022/08/29 04:17:58;;;;;;;;;;;17.00;99.90;;;;;;5116643;27;19926;-78
2022/08/29 04:20:26;;;;;;;;;;;17.00;99.90;;;;;;5150899;27;20375;-78
2022/08/29 04:22:52;;;;;;;;;;;17.00;99.90;;;;;;5133655;27;19931;-78
2022/08/29 04:25:18;;;;;;;;;;;17.00;99.90;;;;;;5134032;27;20235;-78
2022/08/29 04:27:44;;;;;;;;;;;17.00;99.90;;;;;;5133342;27;19926;-78
2022/08/29 04:30:11;;;;;;;;;;;17.00;99.90;;;;;;5116636;27;19942;-78
2022/08/29 04:32:37;;;;;;;;;;;16.90;99.90;;;;;;5116462;27;19919;-78
2022/08/29 04:35:04;;;;;;;;;;;17.00;99.90;;;;;;5133694;27;19920;-78
2022/08/29 04:37:30;;;;;;;;;;;16.90;99.90;;;;;;5133740;27;19926;-78
2022/08/29 04:39:55;;;;;;;;;;;16.90;99.90;;;;;;5116328;28;19919;-78
2022/08/29 04:42:21;;;;;;;;;;;17.00;99.90;;;;;;5133644;27;19929;-78
2022/08/29 04:44:47;;;;;;;;;;;17.00;99.90;;;;;;5128093;27;19963;-78
2022/08/29 04:47:13;;;;;;;;;;;17.00;99.90;;;;;;5112833;28;20379;-78
2022/08/29 04:49:38;;;;;;;;;;;17.00;99.90;;;;;;5095806;28;19945;-78
2022/08/29 04:52:04;;;;;;;;;;;17.00;99.90;;;;;;5112969;28;20271;-78
2022/08/29 04:54:29;;;;;;;;;;;17.00;99.90;;;;;;5095981;28;20351;-78
2022/08/29 04:56:55;;;;;;;;;;;17.00;99.90;;;;;;5078879;28;19920;-78
2022/08/29 04:59:20;;;;;;;;;;;17.00;99.90;;;;;;5095984;28;19924;-78
2022/08/29 05:01:46;;;;;;;;;;;17.00;99.90;;;;;;5112658;28;19920;-78
2022/08/29 05:04:12;;;;;;;;;;;17.00;99.90;;;;;;5095625;28;20009;-78
2022/08/29 05:06:37;;;;;;;;;;;17.00;99.90;;;;;;5112738;28;19919;-78
2022/08/29 05:09:03;;;;;;;;;;;17.00;99.90;;;;;;5096408;28;19927;-78
2022/08/29 05:11:29;;;;;;;;;;;16.90;99.90;;;;;;5083093;28;20422;-77
2022/08/29 05:13:55;;;;;;;;;;;16.90;99.90;;;;;;5116825;28;19927;-78
2022/08/29 05:16:21;;;;;;;;;;;16.90;99.90;;;;;;5117049;28;20304;-78
2022/08/29 05:18:46;;;;;;;;;;;16.90;99.90;;;;;;5099601;28;19920;-78
2022/08/29 05:21:13;;;;;;;;;;;16.90;99.90;;;;;;5083185;28;19920;-78
2022/08/29 05:23:38;;;;;;;;;;;17.00;99.90;;;;;;5116800;28;19920;-78
2022/08/29 05:26:04;;;;;;;;;;;17.00;99.90;;;;;;5116483;28;19926;-78
2022/08/29 05:28:31;;;;;;;;;;;17.00;99.90;;;;;;5099754;28;19923;-78
2022/08/29 05:30:57;;;;;;;;;;;17.00;99.90;;;;;;5116429;28;19923;-78
2022/08/29 05:33:23;;;;;;;;;;;17.00;99.90;;;;;;5099610;28;19926;-78
2022/08/29 05:35:48;;;;;;;;;;;17.10;99.90;;;;;;5099004;28;19926;-78
2022/08/29 05:38:14;;;;;;;;;;;17.10;99.90;;;;;;5099517;28;19919;-78
2022/08/29 05:40:40;;;;;;;;;;;17.20;99.90;;;;;;5099163;28;20331;-78
2022/08/29 05:43:05;;;;;;;;;;;17.20;99.90;;;;;;5116259;28;19953;-78
2022/08/29 05:45:31;;;;;;;;;;;17.20;99.90;;;;;;5098977;28;19931;-78
2022/08/29 05:47:59;;;;;;;;;;;17.30;99.90;;;;;;5098849;28;20311;-78
2022/08/29 05:50:24;;;;;;;;;;;17.20;99.90;;;;;;5099232;28;19920;-78
2022/08/29 05:52:50;;;;;;;;;;;17.30;99.90;;;;;;5099052;28;19926;-78
2022/08/29 05:55:15;;;;;;;;;;;17.30;99.90;;;;;;5099189;28;20412;-78
2022/08/29 05:57:41;;;;;;;;;;;17.40;99.90;;;;;;5099058;28;19946;-78
2022/08/29 06:00:11;;;;;;;;;;;17.40;99.90;;;;;;5115804;28;19935;-78
2022/08/29 06:02:37;;;;;;;;;;;17.40;99.90;;;;;;5115713;28;20363;-78
2022/08/29 06:05:03;;;;;;;;;;;17.50;99.90;;;;;;5098864;28;19926;-78
2022/08/29 06:07:30;;;;;;;;;;;17.50;99.90;;;;;;5098648;28;20001;-78
2022/08/29 06:09:55;;;;;;;;;;;17.60;99.90;;;;;;5115651;28;19919;-78
2022/08/29 06:12:21;;;;;;;;;;;17.60;99.90;;;;;;5098931;28;19949;-78
2022/08/29 06:14:47;;;;;;;;;;;17.60;99.90;;;;;;5115770;28;20022;-78
2022/08/29 06:17:12;;;;;;;;;;;17.60;99.90;;;;;;5115539;28;20010;-78
2022/08/29 06:19:38;;;;;;;;;;;17.70;99.90;;;;;;5098720;28;19920;-78
2022/08/29 06:22:05;;;;;;;;;;;17.70;99.90;;;;;;5114764;28;20007;-78
2022/08/29 06:24:31;;;;;;;;;;;17.70;99.90;;;;;;5115307;28;20355;-78
2022/08/29 06:26:58;;;;;;;;;;;17.70;99.90;;;;;;5115201;28;19927;-78
2022/08/29 06:29:25;;;;;;;;;;;17.80;99.90;;;;;;5098443;28;20014;-78
2022/08/29 06:31:51;;;;;;;;;;;17.80;99.90;;;;;;5115256;28;19923;-78
2022/08/29 06:34:17;;;;;;;;;;;17.80;99.90;;;;;;5115519;28;19920;-77
2022/08/29 06:36:42;;;;;;;;;;;17.80;99.90;;;;;;5115302;28;20252;-78
2022/08/29 06:39:09;;;;;;;;;;;17.80;99.90;;;;;;5098122;28;19919;-78
2022/08/29 06:41:37;;;;;;;;;;;17.90;99.90;;;;;;5098433;28;19923;-78
2022/08/29 06:44:02;;;;;;;;;;;17.90;99.90;;;;;;5097687;28;19969;-78
2022/08/29 06:46:29;;;;;;;;;;;18.00;99.90;;;;;;5114306;28;19920;-78
2022/08/29 06:48:56;;;;;;;;;;;18.00;99.90;;;;;;5114792;28;19919;-78
2022/08/29 06:51:22;;;;;;;;;;;18.00;99.90;;;;;;5098050;28;19924;-78
2022/08/29 06:53:48;;;;;;;;;;;18.20;99.90;;;;;;5115022;28;19920;-78
2022/08/29 06:56:14;;;;;;;;;;;18.20;99.90;;;;;;5097852;28;19981;-78
2022/08/29 06:58:40;;;;;;;;;;;18.20;99.90;;;;;;5114973;28;19919;-78
2022/08/29 07:01:06;;;;;;;;;;;18.30;99.90;;;;;;5114713;28;19943;-78
2022/08/29 07:03:32;;;;;;;;;;;18.40;99.90;;;;;;5097860;28;19919;-78
2022/08/29 07:05:58;;;;;;;;;;;18.30;99.90;;;;;;5097646;28;19984;-78
2022/08/29 07:08:23;;;;;;;;;;;18.40;99.90;;;;;;5114402;28;19927;-78
2022/08/29 07:10:49;;;;;;;;;;;18.40;99.90;;;;;;5114693;28;19920;-78
2022/08/29 07:13:14;;;;;;;;;;;18.50;99.90;;;;;;5114509;28;20277;-77
2022/08/29 07:15:40;;;;;;;;;;;18.50;99.90;;;;;;5114613;28;20009;-78
2022/08/29 07:18:06;;;;;;;;;;;18.60;99.90;;;;;;5114053;28;19919;-78
2022/08/29 07:20:31;;;;;;;;;;;18.60;99.90;;;;;;5114531;28;19950;-78
2022/08/29 07:22:57;;;;;;;;;;;18.60;99.90;;;;;;5114224;28;20381;-78
2022/08/29 07:25:23;;;;;;;;;;;18.60;99.90;;;;;;5080506;28;19920;-78
2022/08/29 07:27:50;;;;;;;;;;;18.60;99.90;;;;;;5114255;27;20010;-78
2022/08/29 07:30:17;;;;;;;;;;;18.60;99.90;;;;;;5097102;28;19920;-78
2022/08/29 07:32:44;;;;;;;;;;;18.60;99.90;;;;;;5113291;28;19926;-77
2022/08/29 07:35:11;;;;;;;;;;;18.50;99.90;;;;;;5114010;28;19920;-78
2022/08/29 07:37:37;;;;;;;;;;;18.50;99.90;;;;;;5097205;28;20332;-77
2022/08/29 07:40:03;;;;;;;;;;;18.50;99.90;;;;;;5113917;28;20016;-78
2022/08/29 07:42:29;;;;;;;;;;;18.50;99.90;;;;;;5114139;28;19920;-78
2022/08/29 07:44:55;;;;;;;;;;;18.50;99.90;;;;;;5113771;28;20369;-77
2022/08/29 07:47:21;;;;;;;;;;;18.50;99.90;;;;;;5096504;28;20421;-78
2022/08/29 07:49:46;;;;;;;;;;;18.50;99.90;;;;;;5114050;27;19943;-78
2022/08/29 07:52:12;;;;;;;;;;;18.60;99.90;;;;;;5096748;28;20335;-78
2022/08/29 07:54:37;;;;;;;;;;;18.70;99.90;;;;;;5113873;28;20006;-78
2022/08/29 07:57:03;;;;;;;;;;;18.80;99.90;;;;;;5096610;28;19920;-78
2022/08/29 07:59:29;;;;;;;;;;;18.80;99.90;;;;;;5096808;28;20339;-78
2022/08/29 08:01:55;;;;;;;;;;;18.80;99.90;;;;;;5113418;28;20356;-78
2022/08/29 08:04:20;;;;;;;;;;;18.80;99.90;;;;;;5096511;28;19933;-78
2022/08/29 08:06:46;;;;;;;;;;;18.80;99.90;;;;;;5096433;28;20351;-78
2022/08/29 08:09:13;;;;;;;;;;;18.80;99.90;;;;;;5096414;28;20258;-78
2022/08/29 08:11:39;;;;;;;;;;;18.90;99.90;;;;;;5096358;28;20263;-78
2022/08/29 08:14:04;;;;;;;;;;;18.90;99.90;;;;;;5113311;28;19926;-78
2022/08/29 08:16:30;;;;;;;;;;;19.00;99.90;;;;;;5113517;28;20347;-78
2022/08/29 08:18:56;;;;;;;;;;;19.10;99.90;;;;;;5113420;28;19966;-78
2022/08/29 08:21:23;;;;;;;;;;;19.20;99.90;;;;;;5096249;28;19992;-78
2022/08/29 08:23:48;;;;;;;;;;;19.30;99.90;;;;;;5096385;28;19920;-78
2022/08/29 08:26:14;;;;;;;;;;;19.40;99.90;;;;;;5096010;28;19998;-78
2022/08/29 08:28:41;;;;;;;;;;;19.40;99.90;;;;;;5096268;28;20002;-78
2022/08/29 08:31:07;;;;;;;;;;;19.50;99.90;;;;;;5113124;28;19927;-78
2022/08/29 08:33:33;;;;;;;;;;;19.50;99.90;;;;;;5096312;28;19919;-78
2022/08/29 08:35:59;;;;;;;;;;;19.50;99.90;;;;;;5096246;28;19946;-78
2022/08/29 08:38:25;;;;;;;;;;;19.60;99.90;;;;;;5095930;28;20357;-78
2022/08/29 08:41:04;;;;;;;;;;;19.60;99.90;;;;;;5079072;28;20011;-78
2022/08/29 08:43:52;;;;;;;;;;;19.60;99.90;;;;;;5095785;28;19920;-78
2022/08/29 08:46:18;;;;;;;;;;;19.60;99.90;;;;;;5102332;28;19920;-78
2022/08/29 08:48:46;;;;;;;;;;;19.60;99.90;;;;;;5112716;28;19920;-78
2022/08/29 08:51:14;;;;;;;;;;;19.60;99.90;;;;;;5112853;28;19923;-78
2022/08/29 08:53:41;;;;;;;;;;;19.60;99.90;;;;;;5112982;28;19927;-78
2022/08/29 08:56:26;;;;;;;;;;;19.50;99.90;;;;;;5112922;28;20271;-78
2022/08/29 08:59:00;;;;;;;;;;;19.50;99.90;;;;;;5113018;28;19924;-78
2022/08/29 09:01:30;;;;;;;;;;;19.50;99.90;;;;;;5112769;28;19967;-78
2022/08/29 09:03:55;;;;;;;;;;;19.40;99.90;;;;;;5113178;28;19927;-77
2022/08/29 09:06:36;;;;;;;;;;;19.40;99.90;;;;;;5112576;28;20294;-78
2022/08/29 09:09:10;;;;;;;;;;;19.30;99.90;;;;;;5095888;28;20422;-78
2022/08/29 09:11:53;;;;;;;;;;;19.30;99.90;;;;;;5112902;28;19920;-78
2022/08/29 09:14:37;;;;;;;;;;;19.30;99.90;;;;;;5112316;28;20397;-78
2022/08/29 09:17:05;;;;;;;;;;;19.40;99.90;;;;;;5112881;28;19984;-78
2022/08/29 09:19:31;;;;;;;;;;;19.30;99.90;;;;;;5112621;28;19976;-78
2022/08/29 09:22:06;;;;;;;;;;;19.30;99.90;;;;;;5113749;28;20300;-78
2022/08/29 09:24:45;;;;;;;;;;;19.20;99.90;;;;;;5112519;28;19969;-78
2022/08/29 09:27:18;;;;;;;;;;;19.30;99.90;;;;;;5112391;28;20019;-82
2022/08/29 09:29:45;;;;;;;;;;;19.30;99.90;;;;;;5101054;28;19919;-82
2022/08/29 09:32:12;;;;;;;;;;;19.30;99.90;;;;;;5116614;28;20014;-81
2022/08/29 09:34:40;;;;;;;;;;;19.30;99.90;;;;;;5113362;28;19920;-81
2022/08/29 09:37:21;;;;;;;;;;;19.30;99.90;;;;;;5114025;28;19939;-85
2022/08/29 09:39:57;;;;;;;;;;;19.40;99.90;;;;;;5118715;28;19919;-87
2022/08/29 09:42:27;;;;;;;;;;;19.50;99.90;;;;;;5115514;28;19920;-80
2022/08/29 09:44:57;;;;;;;;;;;19.50;99.90;;;;;;5128124;27;20047;-83
2022/08/29 09:47:26;;;;;;;;;;;19.60;99.90;;;;;;5128743;28;19919;-83
2022/08/29 09:50:04;;;;;;;;;;;19.70;99.90;;;;;;5138758;27;20052;-85
2022/08/29 09:52:30;;;;;;;;;;;19.80;99.90;;;;;;5138172;27;19919;-81
2022/08/29 09:54:55;;;;;;;;;;;19.80;99.90;;;;;;5138779;27;20485;-81
2022/08/29 09:57:23;;;;;;;;;;;19.80;99.90;;;;;;5134033;27;20431;-81
2022/08/29 10:00:07;;;;;;;;;;;19.80;99.90;;;;;;5144103;27;19923;-82
2022/08/29 10:02:45;;;;;;;;;;;19.80;99.90;;;;;;5125992;27;19919;-83
2022/08/29 10:05:26;;;;;;;;;;;19.80;99.90;;;;;;5136421;27;19923;-83
2022/08/29 10:07:52;;;;;;;;;;;19.80;99.90;;;;;;5119085;27;20381;-84
2022/08/29 10:10:20;;;;;;;;;;;19.80;99.90;;;;;;5154741;27;20271;-83
2022/08/29 10:12:51;;;;;;;;;;;19.80;99.90;;;;;;5150033;27;19919;-81
2022/08/29 10:15:22;;;;;;;;;;;19.80;99.90;;;;;;5144375;27;20258;-81
2022/08/29 10:20:43;;;;;;;;;;;19.70;99.90;;;;;;5149515;27;20063;-82
2022/08/29 10:23:14;;;;;;;;;;;19.70;99.90;;;;;;5136499;27;19919;-82
2022/08/29 10:25:40;;;;;;;;;;;19.80;99.90;;;;;;5127263;27;19999;-83
2022/08/29 10:28:12;;;;;;;;;;;19.80;99.90;;;;;;5132673;27;20291;-83
2022/08/29 10:30:53;;;;;;;;;;;19.70;99.90;;;;;;5134726;27;19923;-82
2022/08/29 10:33:31;;;;;;;;;;;19.70;99.90;;;;;;5156629;27;19966;-80
2022/08/29 10:36:05;;;;;;;;;;;19.70;99.90;;;;;;5135905;27;19923;-78
2022/08/29 10:38:39;;;;;;;;;;;19.70;99.90;;;;;;5118376;27;20014;-82
2022/08/29 10:41:17;;;;;;;;;;;19.70;99.90;;;;;;5150821;27;19919;-83
2022/08/29 10:43:57;;;;;;;;;;;19.70;99.90;;;;;;5151257;27;19965;-82
2022/08/29 10:46:42;;;;;;;;;;;19.70;99.90;;;;;;5151123;27;19927;-81
2022/08/29 10:49:18;;;;;;;;;;;19.70;99.90;;;;;;5135886;27;20057;-84
2022/08/29 10:51:56;;;;;;;;;;;19.60;99.90;;;;;;5143218;27;19919;-73
2022/08/29 10:54:31;;;;;;;;;;;19.50;99.90;;;;;;5135484;27;19946;-75
2022/08/29 10:56:58;;;;;;;;;;;19.50;99.90;;;;;;5135985;27;19944;-73
2022/08/29 10:59:27;;;;;;;;;;;19.40;99.90;;;;;;5135313;27;19923;-73
2022/08/29 11:01:52;;;;;;;;;;;19.30;99.90;;;;;;5136642;27;19920;-73
2022/08/29 11:04:37;;;;;;;;;;;19.30;99.90;;;;;;5152836;27;19926;-74
2022/08/29 11:07:06;;;;;;;;;;;19.30;99.90;;;;;;5136524;27;19927;-74
2022/08/29 11:09:41;;;;;;;;;;;19.50;99.90;;;;;;5135014;27;19976;-74
2022/08/29 11:12:10;;;;;;;;;;;19.60;99.90;;;;;;5136320;27;19919;-75
2022/08/29 11:14:41;;;;;;;;;;;19.60;99.90;;;;;;5134847;27;19919;-75
2022/08/29 11:17:09;;;;;;;;;;;19.80;99.90;;;;;;5134770;27;20381;-74
2022/08/29 11:19:46;;;;;;;;;;;19.90;99.90;;;;;;5134603;27;20019;-75
2022/08/29 11:22:23;;;;;;;;;;;20.00;99.90;;;;;;5139973;27;20362;-75
2022/08/29 11:24:55;;;;;;;;;;;20.10;99.90;;;;;;5122318;27;19964;-75
2022/08/29 11:27:21;;;;;;;;;;;20.30;99.90;;;;;;5138085;27;20282;-75
2022/08/29 11:29:51;;;;;;;;;;;20.50;99.90;;;;;;5153630;27;19919;-76
2022/08/29 11:32:28;;;;;;;;;;;20.60;99.90;;;;;;5137477;27;19981;-76
2022/08/29 11:34:59;;;;;;;;;;;20.80;99.90;;;;;;5154208;27;20381;-76
2022/08/29 11:37:45;;;;;;;;;;;20.90;99.90;;;;;;5143452;27;19926;-76
2022/08/29 11:40:11;;;;;;;;;;;21.00;99.90;;;;;;5123291;27;19919;-76
2022/08/29 11:42:38;;;;;;;;;;;21.00;99.90;;;;;;5117356;27;20046;-76
2022/08/29 11:45:05;;;;;;;;;;;21.10;99.90;;;;;;5129953;27;19919;-76
2022/08/29 11:47:33;;;;;;;;;;;21.20;99.90;;;;;;5116784;27;20355;-76
2022/08/29 11:50:17;;;;;;;;;;;21.20;99.90;;;;;;5134752;27;19973;-76
2022/08/29 11:52:49;;;;;;;;;;;21.30;99.90;;;;;;5117098;27;19920;-76
2022/08/29 11:55:24;;;;;;;;;;;21.30;99.90;;;;;;5125064;27;19961;-77
2022/08/29 11:57:52;;;;;;;;;;;21.30;99.90;;;;;;5118829;27;19931;-77
2022/08/29 12:00:26;;;;;;;;;;;21.30;99.90;;;;;;5134511;27;20363;-76
2022/08/29 12:02:52;;;;;;;;;;;21.40;99.90;;;;;;5116845;27;19923;-76
2022/08/29 12:05:19;;;;;;;;;;;21.50;99.90;;;;;;5118585;27;19948;-76
2022/08/29 12:07:46;;;;;;;;;;;21.50;99.90;;;;;;5132731;27;20014;-76
2022/08/29 12:10:24;;;;;;;;;;;21.50;99.90;;;;;;5137658;27;20050;-76
2022/08/29 12:12:51;;;;;;;;;;;21.50;99.90;;;;;;5154413;27;19923;-76
2022/08/29 12:15:26;;;;;;;;;;;21.60;99.90;;;;;;5133370;27;20347;-76
2022/08/29 12:18:15;;;;;;;;;;;21.60;99.90;;;;;;5133547;27;19930;-76
2022/08/29 12:20:41;;;;;;;;;;;21.70;99.90;;;;;;5114484;27;19969;-76
2022/08/29 12:23:10;;;;;;;;;;;21.60;99.90;;;;;;5133918;27;19958;-75
2022/08/29 12:25:45;;;;;;;;;;;21.60;99.90;;;;;;5122585;27;19926;-77
2022/08/29 12:28:16;;;;;;;;;;;21.70;99.90;;;;;;5153634;27;19933;-75
2022/08/29 12:30:57;;;;;;;;;;;21.70;99.90;;;;;;5136967;27;19929;-75
2022/08/29 12:33:35;;;;;;;;;;;21.70;99.90;;;;;;5154604;27;20305;-80
2022/08/29 12:36:20;;;;;;;;;;;21.80;99.90;;;;;;5152443;27;19925;-73
2022/08/29 12:38:48;;;;;;;;;;;21.80;99.90;;;;;;5154050;27;19925;-76
2022/08/29 12:41:14;;;;;;;;;;;21.90;99.90;;;;;;5136639;27;19927;-74
2022/08/29 12:43:41;;;;;;;;;;;21.80;99.90;;;;;;5136492;27;19919;-74
2022/08/29 12:46:14;;;;;;;;;;;22.00;99.90;;;;;;5148684;27;20387;-75
2022/08/29 12:48:50;;;;;;;;;;;21.90;99.90;;;;;;5143105;27;19923;-74
2022/08/29 12:51:34;;;;;;;;;;;21.80;99.90;;;;;;5153794;27;19988;-74
2022/08/29 12:54:00;;;;;;;;;;;21.80;99.90;;;;;;5153831;27;19923;-74
2022/08/29 12:56:25;;;;;;;;;;;21.80;99.90;;;;;;5152250;27;19964;-74
2022/08/29 12:58:51;;;;;;;;;;;21.90;99.90;;;;;;5145711;27;19927;-74
2022/08/29 13:01:37;;;;;;;;;;;21.80;99.90;;;;;;5124324;28;19926;-74
2022/08/29 13:04:05;;;;;;;;;;;21.80;99.90;;;;;;5131431;28;20309;-81
2022/08/29 13:06:32;;;;;;;;;;;21.90;99.90;;;;;;5134527;27;20422;-79
2022/08/29 13:08:58;;;;;;;;;;;21.80;99.90;;;;;;5129460;27;19919;-83
2022/08/29 13:11:25;;;;;;;;;;;21.80;99.90;;;;;;5133670;27;19979;-80
2022/08/29 13:14:02;;;;;;;;;;;21.80;99.90;;;;;;5144437;27;19968;-80
2022/08/29 13:16:29;;;;;;;;;;;21.80;99.90;;;;;;5133348;28;19967;-79
2022/08/29 13:18:54;;;;;;;;;;;21.90;99.90;;;;;;5149173;27;20380;-79
2022/08/29 13:21:20;;;;;;;;;;;22.00;99.90;;;;;;5118256;28;19919;-79
2022/08/29 13:23:55;;;;;;;;;;;22.00;99.90;;;;;;5132897;27;19919;-75
2022/08/29 13:26:21;;;;;;;;;;;22.10;99.90;;;;;;5137614;27;20335;-75
2022/08/29 13:28:52;;;;;;;;;;;22.20;99.90;;;;;;5141554;27;20365;-78
2022/08/29 13:31:17;;;;;;;;;;;22.20;99.90;;;;;;5141687;27;20308;-77
2022/08/29 13:33:46;;;;;;;;;;;22.30;99.90;;;;;;5147043;27;19924;-79
2022/08/29 13:36:31;;;;;;;;;;;22.20;99.90;;;;;;5134372;27;20286;-78
2022/08/29 13:39:23;;;;;;;;;;;22.30;99.90;;;;;;5133842;27;20230;-78
2022/08/29 13:42:01;;;;;;;;;;;22.20;99.90;;;;;;5150039;27;20355;-78
2022/08/29 13:44:28;;;;;;;;;;;22.10;99.90;;;;;;5133722;27;19923;-78
2022/08/29 13:46:58;;;;;;;;;;;22.20;99.90;;;;;;5137253;27;19952;-79
2022/08/29 13:49:25;;;;;;;;;;;22.30;99.90;;;;;;5137501;27;19923;-78
2022/08/29 13:51:50;;;;;;;;;;;22.30;99.90;;;;;;5135218;27;20366;-81
2022/08/29 13:54:16;;;;;;;;;;;22.20;99.90;;;;;;5135665;27;20002;-80
2022/08/29 13:56:42;;;;;;;;;;;22.10;99.90;;;;;;5147207;27;19927;-80
2022/08/29 13:59:10;;;;;;;;;;;22.00;99.90;;;;;;5145234;27;19919;-80
2022/08/29 14:01:36;;;;;;;;;;;21.90;99.90;;;;;;5140397;27;19923;-80
2022/08/29 14:04:02;;;;;;;;;;;21.80;99.90;;;;;;5145960;27;20006;-78
2022/08/29 14:06:27;;;;;;;;;;;21.80;99.90;;;;;;5157645;27;19923;-85
2022/08/29 14:08:53;;;;;;;;;;;21.70;99.90;;;;;;5129026;27;19923;-76
2022/08/29 14:11:19;;;;;;;;;;;21.80;99.90;;;;;;5148174;27;19919;-80
2022/08/29 14:13:46;;;;;;;;;;;21.70;99.90;;;;;;5140528;27;20017;-80
2022/08/29 14:16:12;;;;;;;;;;;21.90;99.90;;;;;;5140548;27;20028;-80
2022/08/29 14:18:38;;;;;;;;;;;22.00;99.90;;;;;;5140031;27;20040;-80
2022/08/29 14:21:03;;;;;;;;;;;22.10;99.90;;;;;;5149009;27;20026;-79
2022/08/29 14:23:29;;;;;;;;;;;22.20;99.90;;;;;;5134635;27;19964;-80
2022/08/29 14:25:54;;;;;;;;;;;22.30;99.90;;;;;;5119806;27;19923;-80
2022/08/29 14:28:20;;;;;;;;;;;22.40;99.90;;;;;;5135075;27;20249;-79